createdAt,value
2017-11-03T07:27:32.822Z,34.60
2017-11-03T07:30:02.533Z,33.40
2017-11-03T07:32:32.237Z,34.90
2017-11-03T07:35:02.087Z,34.80
2017-11-03T07:37:31.127Z,33.35
2017-11-03T07:40:00.026Z,34.08
2017-11-03T07:42:28.983Z,34.63
2017-11-03T07:44:58.047Z,31.05
2017-11-03T07:47:27.023Z,36.90
2017-11-03T07:49:56.126Z,36.40
2017-11-03T07:52:25.895Z,35.00
2017-11-03T07:54:54.933Z,36.10
2017-11-03T07:57:24.743Z,35.17
2017-11-03T07:59:54.514Z,34.05
2017-11-03T08:02:23.537Z,33.38
2017-11-03T08:04:52.606Z,32.90
2017-11-03T08:07:21.877Z,32.10
2017-11-03T08:09:50.859Z,30.85
2017-11-03T08:13:15.236Z,31.23
2017-11-03T08:15:47.958Z,31.98
2017-11-03T08:18:17.030Z,32.30
2017-11-03T08:20:46.079Z,32.85
2017-11-03T08:23:18.021Z,29.75
2017-11-03T08:25:47.274Z,30.10
2017-11-03T08:28:17.973Z,30.52
2017-11-03T08:30:47.286Z,31.58
2017-11-03T08:33:16.476Z,30.90
2017-11-03T08:35:46.417Z,31.67
2017-11-03T08:38:15.394Z,30.95
2017-11-03T08:40:49.729Z,32.50
2017-11-03T08:43:19.662Z,30.58
2017-11-03T08:45:48.977Z,31.42
2017-11-03T08:48:17.990Z,29.95
2017-11-03T08:50:47.079Z,30.20
2017-11-03T08:53:16.094Z,29.70
2017-11-03T08:55:45.743Z,30.08
2017-11-03T08:58:15.211Z,28.48
2017-11-03T09:00:44.440Z,28.70
2017-11-03T09:03:13.592Z,29.10
2017-11-03T09:49:24.069Z,26.75
2017-11-03T09:51:53.495Z,28.00
2017-11-03T09:54:23.436Z,29.05
2017-11-03T09:56:53.218Z,29.60
2017-11-03T09:59:23.350Z,31.02
2017-11-03T10:01:52.387Z,30.40
2017-11-03T10:04:21.542Z,30.33
2017-11-03T10:06:50.500Z,30.55
2017-11-03T10:09:20.322Z,27.35
2017-11-03T10:11:49.453Z,27.48
2017-11-03T10:14:18.888Z,28.23
2017-11-03T10:16:48.285Z,26.05
2017-11-03T10:19:17.497Z,26.87
2017-11-03T10:21:46.791Z,25.62
2017-11-03T10:24:20.170Z,26.95
2017-11-03T10:26:49.782Z,25.58
2017-11-03T10:29:19.886Z,27.13
2017-11-03T10:31:50.002Z,26.90
2017-11-03T10:34:20.446Z,23.83
2017-11-03T10:36:56.445Z,24.65
2017-11-03T10:39:26.613Z,23.75
2017-11-03T10:41:56.099Z,26.00
2017-11-03T10:44:25.543Z,27.37
2017-11-03T10:46:54.856Z,26.62
2017-11-03T10:49:25.453Z,24.90
2017-11-03T10:52:11.797Z,25.67
2017-11-03T10:54:44.403Z,25.37
2017-11-03T10:57:17.964Z,24.27
2017-11-03T11:02:48.801Z,25.52
2017-11-03T11:05:31.474Z,25.62
2017-11-03T11:08:02.240Z,25.52
2017-11-03T11:10:33.640Z,26.00
2017-11-03T11:13:04.061Z,26.10
2017-11-03T11:15:38.080Z,25.80
2017-11-03T11:18:11.482Z,25.60
2017-11-03T11:20:44.062Z,27.35
2017-11-03T11:23:17.635Z,23.90
2017-11-03T11:25:55.286Z,24.08
2017-11-03T11:28:44.237Z,26.58
2017-11-03T11:31:17.003Z,25.88
2017-11-03T11:33:50.911Z,24.83
2017-11-03T11:36:22.646Z,24.75
2017-11-03T11:39:08.488Z,26.20
2017-11-03T11:41:43.656Z,23.27
2017-11-03T11:44:20.618Z,23.98
2017-11-03T11:47:07.064Z,23.45
2017-11-03T11:49:38.805Z,25.15
2017-11-03T11:52:09.205Z,25.42
2017-11-03T11:54:42.629Z,24.73
2017-11-03T11:57:20.767Z,24.55
2017-11-03T12:00:01.780Z,22.73
2017-11-03T12:02:40.228Z,23.83
2017-11-03T12:05:11.699Z,22.65
2017-11-03T12:07:46.637Z,22.20
2017-11-03T12:10:20.460Z,24.33
2017-11-03T12:12:53.376Z,22.15
2017-11-03T12:15:29.159Z,22.98
2017-11-03T12:18:03.038Z,21.87
2017-11-03T12:20:39.297Z,21.85
2017-11-03T12:23:17.309Z,21.62
2017-11-03T12:25:48.015Z,22.30
2017-11-03T12:28:17.162Z,24.45
2017-11-03T12:30:50.143Z,22.00
2017-11-03T12:33:19.505Z,22.58
2017-11-03T12:35:48.671Z,19.85
2017-11-03T12:38:18.043Z,20.88
2017-11-03T12:40:48.450Z,22.08
2017-11-03T12:43:18.049Z,23.48
2017-11-03T12:45:47.286Z,25.40
2017-11-03T12:48:17.554Z,26.05
2017-11-03T12:50:47.044Z,23.40
2017-11-03T12:53:16.306Z,25.40
2017-11-03T12:55:46.159Z,22.87
2017-11-03T12:58:15.278Z,24.15
2017-11-03T13:00:44.509Z,24.00
2017-11-03T13:03:13.733Z,24.65
2017-11-03T13:05:44.126Z,23.83
2017-11-03T13:08:13.321Z,23.95
2017-11-03T13:10:44.468Z,22.20
2017-11-03T13:13:13.747Z,22.87
2017-11-03T13:15:42.908Z,21.90
2017-11-03T13:18:12.432Z,22.23
2017-11-03T13:20:41.588Z,23.45
2017-11-03T13:23:10.685Z,22.13
2017-11-03T13:25:40.841Z,23.45
2017-11-03T13:28:10.160Z,22.13
2017-11-03T13:30:40.159Z,22.20
2017-11-03T13:33:09.839Z,22.60
2017-11-03T13:35:38.960Z,23.52
2017-11-03T13:38:08.200Z,22.37
2017-11-03T13:40:38.533Z,23.02
2017-11-03T13:43:07.586Z,21.25
2017-11-03T13:45:37.221Z,22.27
2017-11-03T13:48:07.820Z,21.92
2017-11-03T13:50:44.547Z,23.40
2017-11-03T13:53:13.931Z,22.15
2017-11-03T13:55:54.088Z,23.12
2017-11-03T13:58:23.959Z,22.20
2017-11-03T14:00:53.253Z,23.67
2017-11-03T14:03:31.606Z,22.52
2017-11-03T14:06:09.718Z,21.05
2017-11-03T14:08:43.280Z,21.05
2017-11-03T14:11:19.663Z,20.30
2017-11-03T14:13:53.172Z,19.33
2017-11-03T14:16:25.433Z,20.92
2017-11-03T14:18:56.736Z,19.92
2017-11-03T14:21:28.018Z,20.25
2017-11-03T14:24:03.588Z,21.15
2017-11-03T14:26:42.032Z,18.83
2017-11-03T14:29:11.531Z,18.25
2017-11-03T14:31:40.751Z,18.25
2017-11-03T14:34:09.853Z,17.90
2017-11-03T14:36:39.054Z,17.45
2017-11-03T14:39:08.634Z,16.37
2017-11-03T14:41:37.769Z,18.15
2017-11-03T14:44:06.927Z,17.73
2017-11-03T14:46:36.079Z,19.85
2017-11-03T14:49:05.392Z,18.90
2017-11-03T14:51:34.679Z,18.60
2017-11-03T14:54:03.784Z,17.25
2017-11-03T14:56:32.794Z,18.45
2017-11-03T14:59:02.010Z,20.60
2017-11-03T15:01:31.163Z,17.92
2017-11-03T15:04:00.372Z,19.30
2017-11-03T15:06:34.707Z,19.87
2017-11-03T15:09:05.531Z,19.98
2017-11-03T15:11:35.442Z,21.40
2017-11-03T15:14:04.755Z,21.30
2017-11-03T15:16:33.814Z,21.27
2017-11-03T15:19:03.340Z,20.73
2017-11-03T15:21:32.659Z,23.40
2017-11-03T15:24:01.928Z,22.17
2017-11-03T15:26:31.265Z,24.37
2017-11-03T15:29:01.466Z,24.12
2017-11-03T15:31:30.655Z,25.60
2017-11-03T15:34:00.656Z,25.55
2017-11-03T15:36:31.643Z,24.17
2017-11-03T15:39:01.535Z,24.60
2017-11-03T15:41:31.603Z,24.48
2017-11-03T15:44:03.864Z,25.30
2017-11-03T15:46:33.169Z,27.27
2017-11-03T15:49:02.431Z,26.58
2017-11-03T15:51:31.695Z,28.05
2017-11-03T15:54:00.909Z,25.08
2017-11-03T15:56:30.437Z,28.10
2017-11-03T15:58:59.723Z,27.08
2017-11-03T16:01:28.960Z,25.33
2017-11-03T16:03:57.900Z,24.90
2017-11-03T16:06:27.012Z,24.58
2017-11-03T16:08:57.609Z,26.80
2017-11-03T16:11:28.092Z,27.75
2017-11-03T16:13:59.634Z,27.23
2017-11-03T16:16:36.208Z,25.20
2017-11-03T16:19:06.357Z,26.45
2017-11-03T16:21:35.898Z,26.58
2017-11-03T16:24:06.231Z,26.45
2017-11-03T16:26:37.136Z,29.17
2017-11-03T16:29:06.465Z,27.85
2017-11-03T16:31:36.248Z,28.92
2017-11-03T16:34:06.359Z,28.10
2017-11-03T16:36:35.351Z,29.08
2017-11-03T16:39:05.448Z,31.00
2017-11-03T16:41:35.723Z,28.90
2017-11-03T16:44:04.770Z,29.12
2017-11-03T16:46:33.777Z,27.15
2017-11-03T16:49:03.102Z,27.92
2017-11-03T16:51:32.308Z,25.88
2017-11-03T16:54:02.687Z,28.27
2017-11-03T16:56:32.284Z,26.00
2017-11-03T16:59:01.730Z,25.80
2017-11-03T17:01:32.210Z,25.62
2017-11-03T17:04:03.055Z,27.70
2017-11-03T17:06:32.232Z,27.65
2017-11-03T17:09:02.115Z,27.27
2017-11-03T17:11:31.949Z,27.92
2017-11-03T17:14:02.930Z,29.05
2017-11-03T17:16:45.667Z,29.37
2017-11-03T17:19:16.188Z,27.70
2017-11-03T17:21:46.951Z,24.30
2017-11-03T17:24:17.943Z,27.02
2017-11-03T17:26:47.638Z,27.20
2017-11-03T17:29:22.811Z,28.98
2017-11-03T17:31:55.319Z,32.42
2017-11-03T17:34:25.590Z,31.35
2017-11-03T17:36:57.241Z,33.15
2017-11-03T17:39:26.504Z,37.65
2017-11-03T17:41:58.876Z,39.30
2017-11-03T17:44:32.213Z,35.35
2017-11-03T17:47:03.226Z,36.97
2017-11-03T17:49:32.821Z,33.13
2017-11-03T17:52:02.395Z,34.75
2017-11-03T17:54:33.686Z,34.60
2017-11-03T17:57:03.468Z,35.30
2017-11-03T17:59:43.180Z,35.47
2017-11-03T18:02:14.473Z,32.25
2017-11-03T18:04:44.788Z,34.42
2017-11-03T18:07:14.975Z,29.95
2017-11-03T18:09:47.342Z,29.92
2017-11-03T18:12:16.725Z,34.10
2017-11-03T18:14:47.969Z,29.73
2017-11-03T18:17:17.771Z,30.23
2017-11-03T18:19:48.159Z,30.90
2017-11-03T18:22:19.387Z,29.05
2017-11-03T18:24:49.671Z,27.40
2017-11-03T18:27:18.940Z,30.52
2017-11-03T18:29:49.139Z,31.50
2017-11-03T18:32:20.609Z,31.45
2017-11-03T18:34:50.167Z,29.27
2017-11-03T18:37:19.954Z,28.95
2017-11-03T18:39:49.586Z,28.08
2017-11-03T18:42:20.069Z,29.00
2017-11-03T18:44:50.200Z,29.23
2017-11-03T18:47:19.275Z,28.27
2017-11-03T18:49:48.517Z,28.25
2017-11-03T18:52:19.643Z,27.75
2017-11-03T18:54:49.659Z,27.95
2017-11-03T18:57:19.471Z,25.00
2017-11-03T18:59:49.310Z,23.80
2017-11-03T19:02:19.471Z,24.75
2017-11-03T19:04:48.449Z,28.20
2017-11-03T19:07:17.528Z,32.35
2017-11-03T19:09:46.708Z,24.77
2017-11-03T19:12:16.482Z,25.12
2017-11-03T19:14:45.500Z,25.35
2017-11-03T19:17:14.535Z,26.30
2017-11-03T19:19:43.460Z,25.30
2017-11-03T19:22:13.250Z,27.42
2017-11-03T19:24:42.381Z,29.63
2017-11-03T19:27:12.165Z,31.02
2017-11-03T19:29:41.221Z,30.27
2017-11-03T19:32:10.262Z,34.75
2017-11-03T19:34:43.907Z,33.88
2017-11-03T19:37:17.708Z,35.20
2017-11-03T19:39:46.674Z,33.65
2017-11-03T19:42:16.466Z,34.58
2017-11-03T19:44:45.489Z,32.88
2017-11-03T19:47:15.292Z,34.58
2017-11-03T19:49:45.124Z,28.80
2017-11-03T19:52:14.123Z,29.45
2017-11-03T19:54:43.838Z,30.00
2017-11-03T19:57:16.263Z,34.65
2017-11-03T19:59:45.213Z,30.70
2017-11-03T20:02:14.206Z,30.37
2017-11-03T20:04:43.215Z,31.27
2017-11-03T20:07:12.946Z,31.37
2017-11-03T20:09:41.896Z,31.65
2017-11-03T20:12:10.980Z,31.00
2017-11-03T20:14:40.568Z,29.67
2017-11-03T20:17:10.385Z,28.27
2017-11-03T20:19:40.372Z,28.15
2017-11-03T20:22:09.375Z,26.33
2017-11-03T20:24:39.154Z,26.30
2017-11-03T20:27:08.196Z,24.77
2017-11-03T20:29:38.074Z,27.37
2017-11-03T20:32:07.144Z,26.60
2017-11-03T20:34:36.148Z,24.45
2017-11-03T20:37:05.282Z,24.33
2017-11-03T20:39:35.230Z,25.37
2017-11-03T20:42:04.389Z,23.98
2017-11-03T20:44:33.677Z,24.63
2017-11-03T20:47:02.975Z,24.90
2017-11-03T20:49:32.070Z,25.70
2017-11-03T20:52:01.083Z,24.42
2017-11-03T20:54:30.117Z,24.63
2017-11-03T20:56:59.209Z,23.70
2017-11-03T20:59:28.489Z,24.10
2017-11-03T21:01:57.545Z,25.55
2017-11-03T21:04:26.529Z,24.33
2017-11-03T21:06:55.754Z,23.15
2017-11-03T21:09:24.739Z,23.45
2017-11-03T21:11:56.752Z,23.02
2017-11-03T21:14:25.741Z,21.75
2017-11-03T21:16:55.439Z,20.73
2017-11-03T21:19:24.492Z,24.50
2017-11-03T21:21:53.383Z,23.30
2017-11-03T21:24:22.473Z,23.75
2017-11-03T21:26:51.476Z,22.50
2017-11-03T21:29:21.527Z,22.70
2017-11-03T21:31:51.255Z,23.55
2017-11-03T21:34:21.063Z,23.08
2017-11-03T21:36:50.059Z,21.00
2017-11-03T21:39:19.756Z,22.73
2017-11-03T21:44:41.794Z,22.42
2017-11-03T21:47:11.678Z,23.48
2017-11-03T21:49:46.659Z,22.48
2017-11-03T21:52:19.895Z,22.27
2017-11-03T21:54:49.016Z,23.42
2017-11-03T21:57:18.051Z,21.45
2017-11-03T21:59:47.029Z,24.58
2017-11-03T22:02:15.975Z,22.45
2017-11-03T22:04:44.935Z,24.30
2017-11-03T22:07:13.958Z,23.83
2017-11-03T22:09:42.928Z,24.25
2017-11-03T22:12:11.926Z,23.48
2017-11-03T22:58:22.152Z,22.13
2017-11-03T23:00:53.902Z,23.67
2017-11-03T23:03:22.871Z,24.00
2017-11-03T23:05:51.899Z,24.10
2017-11-03T23:08:21.332Z,23.83
2017-11-03T23:10:50.409Z,23.20
2017-11-03T23:13:19.411Z,24.20
2017-11-03T23:15:48.387Z,24.85
2017-11-03T23:18:17.317Z,24.00
2017-11-03T23:20:47.031Z,23.50
2017-11-03T23:23:20.704Z,24.37
2017-11-03T23:25:53.247Z,25.10
2017-11-03T23:28:22.318Z,26.33
2017-11-03T23:30:54.849Z,24.37
2017-11-03T23:33:23.838Z,25.73
2017-11-03T23:35:52.780Z,23.85
2017-11-03T23:38:23.792Z,24.05
2017-11-03T23:40:53.774Z,24.30
2017-11-03T23:43:22.748Z,25.10
2017-11-03T23:45:51.702Z,23.60
2017-11-03T23:48:21.476Z,22.58
2017-11-03T23:50:50.530Z,25.35
2017-11-03T23:53:19.555Z,24.05
2017-11-03T23:55:49.364Z,24.65
2017-11-03T23:58:18.330Z,24.55
